Data for 01/10/2014

Time Sea-Level Adjusted Pressure Absolute Pressure Temperature Relative Humidity Dew Point   
(mb) (inHg) (mb) (inHg) (C) (F) (%) (C) (F)
00:05 1009 29.8 838 24.75 -2.2 28.1 46 -12.3 9.9
00:10 1009 29.8 838 24.75 -2.1 28.2 47 -12 10.3
00:15 1009 29.8 838 24.75 -2.1 28.3 47 -11.9 10.7
00:20 1009 29.8 838 24.75 -2.2 28 50 -11.3 11.7
00:25 1009 29.8 838 24.75 -2.6 27.4 51 -11.4 11.4
00:30 1009 29.8 838 24.75 -2.7 27.1 51 -11.6 11.1
00:35 1009 29.8 838 24.75 -2.6 27.4 50 -11.5 11.3
00:40 1009 29.8 838 24.75 -2.4 27.7 48 -12 10.5
00:45 1009 29.8 838 24.75 -2.1 28.2 49 -11.5 11.4
00:50 1009 29.8 838 24.75 -2 28.4 49 -11.4 11.5
00:55 1009 29.8 838 24.75 -2 28.4 48 -11.7 11
01:00 1009 29.8 838 24.75 -1.9 28.6 48 -11.4 11.5
01:05 1009 29.8 838 24.75 -1.9 28.5 48 -11.5 11.3
01:10 1009 29.8 838 24.75 -2 28.3 50 -11.3 11.7
01:15 1009 29.8 838 24.75 -2.1 28.2 50 -11.3 11.7
01:20 1009 29.8 838 24.75 -2.1 28.2 49 -11.3 11.6
01:25 1008 29.77 837 24.72 -2 28.4 47 -11.7 10.9
01:30 1008 29.77 837 24.72 -1.6 29 46 -11.9 10.6
01:35 1008 29.77 837 24.72 -1.5 29.4 47 -11.4 11.5
01:40 1008 29.77 837 24.72 -1.5 29.3 47 -11.4 11.6
01:45 1008 29.77 837 24.72 -1.5 29.3 47 -11.4 11.4
01:50 1008 29.77 837 24.72 -1.4 29.4 46 -11.5 11.3
01:55 1008 29.77 837 24.72 -1.5 29.3 49 -11 12.2
02:00 1008 29.77 837 24.72 -1.6 29.1 50 -10.7 12.8
02:05 1008 29.77 837 24.72 -1.8 28.8 51 -10.5 13.1
02:10 1008 29.77 837 24.72 -1.8 28.7 52 -10.3 13.4
02:15 1008 29.77 837 24.72 -1.9 28.6 51 -10.7 12.7
02:20 1008 29.77 837 24.72 -1.7 28.9 50 -10.8 12.6
02:25 1008 29.77 837 24.72 -1.7 29 48 -11.3 11.6
02:30 1008 29.77 837 24.72 -1.5 29.2 48 -11.3 11.6
02:35 1008 29.77 837 24.72 -1.5 29.3 48 -11.1 12
02:40 1008 29.77 837 24.72 -1.7 29 48 -11.3 11.6
02:45 1007 29.74 837 24.72 -1.4 29.4 47 -11.4 11.6
02:50 1007 29.74 837 24.72 -1.4 29.5 48 -11 12.2
02:55 1007 29.74 837 24.72 -1.1 30 47 -10.9 12.4
03:00 1007 29.74 836 24.69 -0.9 30.3 47 -10.9 12.4
03:05 1007 29.74 836 24.69 -0.9 30.3 47 -10.8 12.6
03:10 1007 29.74 837 24.72 -1.1 30 50 -10.1 13.8
03:15 1007 29.74 837 24.72 -1.3 29.7 51 -10.1 13.9
03:20 1007 29.74 837 24.72 -1.3 29.6 51 -10.2 13.6
03:25 1007 29.74 837 24.72 -1.3 29.7 51 -10.1 13.9
03:30 1007 29.74 836 24.69 -1.4 29.5 53 -9.8 14.4
03:35 1007 29.74 836 24.69 -1.5 29.3 53 -9.8 14.3
03:40 1007 29.74 836 24.69 -1.7 29 54 -9.8 14.4
03:45 1007 29.74 836 24.69 -1.7 28.9 53 -10 14
03:50 1007 29.74 836 24.69 -1.7 29 53 -10 13.9
03:55 1007 29.74 836 24.69 -1.7 29 52 -10.3 13.5
04:00 1007 29.74 836 24.69 -1.6 29.2 52 -10.2 13.6
04:05 1007 29.74 836 24.69 -1.5 29.3 53 -9.8 14.3
04:10 1007 29.74 836 24.69 -1.5 29.3 54 -9.6 14.7
04:15 1007 29.74 836 24.69 -1.5 29.2 54 -9.6 14.8
04:20 1007 29.74 836 24.69 -1.6 29.1 55 -9.6 14.8
04:25 1007 29.74 836 24.69 -1.5 29.3 54 -9.7 14.5
04:30 1007 29.74 836 24.69 -1.4 29.4 55 -9.3 15.2
04:35 1007 29.74 836 24.69 -1.5 29.3 53 -10 14
04:40 1007 29.74 836 24.69 -1.5 29.3 53 -9.9 14.2
04:45 1007 29.74 836 24.69 -1.6 29.1 54 -9.8 14.3
04:50 1007 29.74 836 24.69 -1.6 29.1 53 -10 14
04:55 1007 29.74 836 24.69 -1.5 29.2 52 -10.2 13.7
05:00 1007 29.74 836 24.69 -1.3 29.6 52 -9.9 14.3
05:05 1007 29.74 836 24.69 -1.4 29.6 52 -10 14
05:10 1007 29.74 836 24.69 -1.4 29.5 52 -9.9 14.1
05:15 1006 29.71 836 24.69 -1.3 29.6 53 -9.6 14.7
05:20 1006 29.71 836 24.69 -1.3 29.7 54 -9.5 14.9
05:25 1007 29.74 836 24.69 -1.2 29.8 54 -9.4 15.1
05:30 1007 29.74 836 24.69 -1 30.2 52 -9.8 14.4
05:35 1006 29.71 836 24.69 -0.9 30.4 54 -9.1 15.5
05:40 1006 29.71 836 24.69 -0.9 30.3 53 -9.4 15.2
05:45 1006 29.71 836 24.69 -0.8 30.6 53 -9.2 15.5
05:50 1006 29.71 836 24.69 -0.8 30.6 54 -9 15.8
05:55 1006 29.71 835 24.66 -0.8 30.5 55 -8.8 16.1
06:00 1006 29.71 835 24.66 -0.7 30.8 54 -8.8 16.1
06:05 1006 29.71 835 24.66 -0.1 31.8 51 -9.1 15.7
06:10 1006 29.71 835 24.66 0.2 32.4 51 -8.7 16.3
06:15 1006 29.71 835 24.66 0.3 32.5 51 -8.8 16.2
06:20 1006 29.71 835 24.66 0.3 32.5 50 -8.9 16
06:25 1006 29.71 835 24.66 0.4 32.7 50 -9 15.9
06:30 1006 29.71 835 24.66 0.3 32.6 52 -8.5 16.7
06:35 1006 29.71 835 24.66 0.2 32.4 50 -8.9 15.9
06:40 1006 29.71 836 24.69 0.3 32.5 51 -8.8 16.2
06:45 1006 29.71 836 24.69 0.2 32.4 51 -8.8 16.2
06:50 1006 29.71 836 24.69 0.3 32.5 49 -9.1 15.6
06:55 1006 29.71 836 24.69 0.4 32.7 49 -9.2 15.4
07:00 1006 29.71 836 24.69 0.5 32.8 50 -8.8 16.2
07:05 1006 29.71 835 24.66 0.4 32.7 50 -8.9 15.9
07:10 1006 29.71 836 24.69 0.4 32.7 49 -9 15.8
07:15 1007 29.74 836 24.69 0.4 32.7 51 -8.7 16.3
07:20 1006 29.71 836 24.69 0.4 32.7 49 -9 15.7
07:25 1006 29.71 836 24.69 0.4 32.7 50 -8.9 16
07:30 1007 29.74 836 24.69 0.4 32.8 49 -9.2 15.5
07:35 1007 29.74 836 24.69 0.4 32.8 50 -8.9 16
07:40 1007 29.74 836 24.69 0.4 32.7 50 -9 15.9
07:45 1007 29.74 836 24.69 0.4 32.7 50 -8.8 16.2
07:50 1007 29.74 836 24.69 0.4 32.7 50 -8.9 16
07:55 1007 29.74 836 24.69 0.5 32.9 49 -8.9 15.9
08:00 1007 29.74 836 24.69 0.5 32.9 50 -8.9 16
08:05 1007 29.74 836 24.69 0.5 32.9 50 -8.6 16.5
08:10 1007 29.74 836 24.69 0.5 32.9 49 -9 15.8
08:15 1007 29.74 836 24.69 0.5 32.9 49 -9.1 15.7
08:20 1007 29.74 836 24.69 0.5 32.9 49 -8.9 16
08:25 1007 29.74 836 24.69 0.4 32.7 51 -8.7 16.4
08:30 1007 29.74 836 24.69 0.3 32.5 51 -8.7 16.3
08:35 1007 29.74 836 24.69 0.2 32.4 51 -8.8 16.2
08:40 1007 29.74 836 24.69 0.3 32.6 51 -8.7 16.3
08:45 1007 29.74 836 24.69 0.3 32.6 52 -8.4 16.8
08:50 1007 29.74 836 24.69 0.4 32.7 51 -8.7 16.3
08:55 1007 29.74 837 24.72 0.5 32.9 51 -8.6 16.6
09:00 1007 29.74 837 24.72 0.5 33 51 -8.6 16.6
09:05 1008 29.77 837 24.72 0.6 33.1 49 -9 15.9
09:10 1008 29.77 837 24.72 0.7 33.2 49 -8.8 16.2
09:15 1008 29.77 837 24.72 0.7 33.2 50 -8.6 16.5
09:20 1008 29.77 837 24.72 0.6 33.2 51 -8.4 16.9
09:25 1008 29.77 837 24.72 0.6 33.1 52 -8.2 17.3
09:30 1008 29.77 837 24.72 0.6 33 53 -8 17.6
09:35 1008 29.77 837 24.72 0.6 33 53 -7.9 17.7
09:40 1008 29.77 837 24.72 0.5 33 53 -7.9 17.8
09:45 1008 29.77 837 24.72 0.6 33 54 -7.8 18
09:50 1008 29.77 837 24.72 0.6 33.1 54 -7.7 18.2
09:55 1008 29.77 837 24.72 0.8 33.4 54 -7.5 18.5
10:00 1008 29.77 837 24.72 0.9 33.7 53 -7.6 18.2
10:05 1008 29.77 837 24.72 1 33.8 53 -7.5 18.5
10:10 1008 29.77 837 24.72 0.9 33.7 53 -7.5 18.5
10:15 1008 29.77 837 24.72 0.9 33.6 53 -7.6 18.3
10:20 1008 29.77 837 24.72 1 33.8 53 -7.4 18.6
10:25 1008 29.77 837 24.72 1.1 34.1 52 -7.6 18.3
10:30 1008 29.77 838 24.75 1.2 34.1 54 -7.2 19
10:35 1008 29.77 838 24.75 1.2 34.1 52 -7.5 18.4
10:40 1009 29.8 838 24.75 1.3 34.3 53 -7.4 18.7
10:45 1009 29.8 838 24.75 1.3 34.4 53 -7.3 18.8
10:50 1009 29.8 838 24.75 1.4 34.6 51 -7.5 18.4
10:55 1009 29.8 838 24.75 1.5 34.8 51 -7.5 18.5
11:00 1009 29.8 838 24.75 1.6 34.9 51 -7.5 18.5
11:05 1009 29.8 838 24.75 1.6 34.9 51 -7.4 18.8
11:10 1009 29.8 838 24.75 1.6 34.9 51 -7.3 18.8
11:15 1009 29.8 838 24.75 1.6 34.9 51 -7.5 18.5
11:20 1009 29.8 838 24.75 1.6 34.9 51 -7.4 18.6
11:25 1009 29.8 838 24.75 1.7 35 52 -7.3 18.9
11:30 1009 29.8 838 24.75 1.7 35.1 51 -7.4 18.6
11:35 1009 29.8 838 24.75 1.8 35.2 51 -7.3 18.9
11:40 1009 29.8 838 24.75 1.8 35.2 52 -7 19.3
11:45 1009 29.8 838 24.75 1.8 35.2 51 -7.4 18.8
11:50 1009 29.8 838 24.75 1.8 35.3 51 -7.4 18.7
11:55 1009 29.8 839 24.78 1.9 35.5 51 -7.2 19
12:00 1009 29.8 839 24.78 2.1 35.8 50 -7.3 18.8
12:05 1009 29.8 838 24.75 2.2 35.9 50 -7.1 19.3
12:10 1009 29.8 839 24.78 2.2 36 50 -7.1 19.2
12:15 1009 29.8 839 24.78 2.3 36.1 51 -6.8 19.8
12:20 1009 29.8 839 24.78 2.3 36.2 50 -7 19.5
12:25 1009 29.8 839 24.78 2.4 36.3 49 -7.1 19.2
12:30 1009 29.8 838 24.75 2.5 36.4 50 -7 19.3
12:35 1009 29.8 838 24.75 2.4 36.4 50 -7 19.3
12:40 1009 29.8 838 24.75 2.4 36.4 51 -6.7 20
12:45 1009 29.8 838 24.75 2.5 36.5 51 -6.7 20
12:50 1009 29.8 838 24.75 2.6 36.6 50 -6.9 19.7
12:55 1009 29.8 838 24.75 2.6 36.7 47 -7.6 18.4
13:00 1009 29.8 838 24.75 2.6 36.7 48 -7.3 18.9
13:05 1009 29.8 838 24.75 2.6 36.6 48 -7.2 19
13:10 1009 29.8 838 24.75 2.6 36.7 47 -7.5 18.5
13:15 1009 29.8 838 24.75 2.8 37 48 -7.3 18.9
13:20 1009 29.8 838 24.75 2.9 37.2 45 -7.8 18
13:25 1009 29.8 838 24.75 3 37.5 45 -7.6 18.3
13:30 1009 29.8 838 24.75 3.1 37.6 45 -7.7 18.1
13:35 1009 29.8 838 24.75 3.2 37.7 45 -7.6 18.4
13:40 1009 29.8 838 24.75 3.2 37.7 44 -7.9 17.8
13:45 1009 29.8 838 24.75 3.2 37.8 43 -8.2 17.2
13:50 1009 29.8 838 24.75 3.3 37.9 43 -8.1 17.5
13:55 1009 29.8 838 24.75 3.3 37.9 44 -7.9 17.7
14:00 1009 29.8 838 24.75 3.2 37.7 44 -8 17.7
14:05 1009 29.8 838 24.75 3.2 37.7 42 -8.5 16.7
14:10 1009 29.8 838 24.75 3.2 37.8 42 -8.4 16.9
14:15 1009 29.8 838 24.75 3.1 37.6 45 -7.7 18.2
14:20 1009 29.8 838 24.75 3 37.4 46 -7.6 18.4
14:25 1009 29.8 838 24.75 2.9 37.3 47 -7.3 18.9
14:30 1009 29.8 838 24.75 2.9 37.1 48 -7.1 19.3
14:35 1009 29.8 838 24.75 2.8 37.1 48 -7.1 19.2
14:40 1009 29.8 838 24.75 2.8 37.1 47 -7.3 18.9
14:45 1009 29.8 838 24.75 2.9 37.2 46 -7.7 18.2
14:50 1009 29.8 838 24.75 3 37.5 45 -7.8 17.9
14:55 1009 29.8 838 24.75 3.2 37.7 44 -8 17.7
15:00 1009 29.8 838 24.75 3.2 37.7 43 -8.2 17.2
15:05 1009 29.8 838 24.75 3.3 37.9 44 -7.8 18
15:10 1009 29.8 838 24.75 3.2 37.8 44 -7.8 18
15:15 1009 29.8 838 24.75 3.2 37.8 44 -8 17.6
15:20 1009 29.8 838 24.75 3.3 37.9 43 -8.1 17.4
15:25 1009 29.8 838 24.75 3.3 38 42 -8.5 16.7
15:30 1009 29.8 838 24.75 3.4 38.2 42 -8.3 17.1
15:35 1009 29.8 839 24.78 3.4 38.1 43 -8.1 17.4
15:40 1009 29.8 839 24.78 3.4 38 43 -8.2 17.3
15:45 1010 29.83 839 24.78 3.3 38 43 -8 17.6
15:50 1010 29.83 839 24.78 3.3 38 44 -7.9 17.8
15:55 1010 29.83 839 24.78 3.4 38 43 -8 17.6
16:00 1010 29.83 839 24.78 3.4 38.2 43 -8.1 17.4
16:05 1010 29.83 839 24.78 3.5 38.2 43 -8 17.7
16:10 1010 29.83 839 24.78 3.4 38.2 44 -7.8 18
16:15 1010 29.83 839 24.78 3.3 38 45 -7.6 18.3
16:20 1010 29.83 839 24.78 3.2 37.8 45 -7.7 18.1
16:25 1010 29.83 839 24.78 3.2 37.8 43 -8.1 17.4
16:30 1010 29.83 839 24.78 3.3 37.9 43 -8.2 17.3
16:35 1010 29.83 839 24.78 3.3 38 44 -7.9 17.8
16:40 1010 29.83 839 24.78 3.3 37.9 44 -7.9 17.7
16:45 1010 29.83 840 24.81 3.2 37.8 45 -7.5 18.4
16:50 1010 29.83 840 24.81 3.1 37.6 45 -7.8 17.9
16:55 1010 29.83 840 24.81 3 37.5 43 -8.3 17.1
17:00 1010 29.83 840 24.81 3.1 37.5 44 -8 17.6
17:05 1011 29.85 840 24.81 3 37.5 45 -7.8 17.9
17:10 1011 29.85 840 24.81 2.9 37.2 46 -7.6 18.3
17:15 1011 29.85 840 24.81 2.8 37 45 -8.1 17.5
17:20 1011 29.85 840 24.81 2.8 37.1 46 -7.8 18
17:25 1011 29.85 840 24.81 2.8 37.1 44 -8.3 17.1
17:30 1011 29.85 840 24.81 2.9 37.2 43 -8.5 16.8
17:35 1011 29.85 840 24.81 3 37.3 42 -8.7 16.3
17:40 1011 29.85 840 24.81 3.1 37.6 41 -8.8 16.2
17:45 1011 29.85 840 24.81 3.2 37.7 41 -8.8 16.1
17:50 1011 29.85 840 24.81 3.1 37.6 43 -8.4 16.9
17:55 1011 29.85 840 24.81 3 37.4 44 -8.1 17.4
18:00 1011 29.85 840 24.81 2.9 37.2 43 -8.4 16.8
18:05 1011 29.85 840 24.81 2.8 37.1 45 -8.1 17.4
18:10 1011 29.85 840 24.81 2.8 37 43 -8.6 16.5
18:15 1011 29.85 840 24.81 2.8 37.1 42 -8.7 16.3
18:20 1011 29.85 840 24.81 2.9 37.2 43 -8.6 16.6
18:25 1011 29.85 841 24.83 2.9 37.3 42 -8.9 16.1
18:30 1012 29.88 841 24.83 3 37.4 42 -8.8 16.2
18:35 1012 29.88 841 24.83 3 37.3 43 -8.5 16.7
18:40 1012 29.88 841 24.83 2.8 37.1 43 -8.4 16.8
18:45 1012 29.88 841 24.83 2.6 36.7 46 -7.9 17.7
18:50 1012 29.88 841 24.83 2.3 36.2 46 -8.1 17.5
18:55 1012 29.88 841 24.83 2.3 36.2 47 -8 17.7
19:00 1012 29.88 841 24.83 2.4 36.2 46 -8.2 17.3
19:05 1012 29.88 841 24.83 2.5 36.5 45 -8.4 17
19:10 1012 29.88 841 24.83 2.7 36.9 45 -7.9 17.7
19:15 1012 29.88 841 24.83 2.6 36.6 47 -7.5 18.4
19:20 1012 29.88 841 24.83 2.5 36.5 47 -7.7 18.2
19:25 1012 29.88 841 24.83 2.4 36.3 49 -7.4 18.7
19:30 1012 29.88 841 24.83 2.2 36 47 -7.9 17.8
19:35 1012 29.88 841 24.83 2.4 36.4 48 -7.6 18.4
19:40 1012 29.88 841 24.83 2.4 36.2 49 -7.2 19
19:45 1012 29.88 841 24.83 2.2 36 49 -7.4 18.6
19:50 1012 29.88 841 24.83 2.3 36.1 49 -7.5 18.5
19:55 1012 29.88 841 24.83 2.3 36.1 49 -7.5 18.6
20:00 1012 29.88 841 24.83 2.3 36.1 48 -7.6 18.2
20:05 1012 29.88 842 24.86 2.4 36.3 47 -7.7 18.2
20:10 1013 29.91 842 24.86 2.4 36.3 48 -7.6 18.4
20:15 1013 29.91 842 24.86 2.3 36.1 49 -7.4 18.7
20:20 1013 29.91 842 24.86 2.2 36 50 -7.3 18.9
20:25 1013 29.91 842 24.86 2.1 35.9 50 -7.3 18.9
20:30 1013 29.91 842 24.86 2.1 35.7 51 -7 19.4
20:35 1013 29.91 842 24.86 2 35.6 51 -7.1 19.2
20:40 1013 29.91 842 24.86 2 35.6 52 -6.9 19.7
20:45 1013 29.91 842 24.86 2.1 35.7 50 -7.2 19
20:50 1013 29.91 842 24.86 2.2 35.9 50 -7.2 19.1
20:55 1013 29.91 842 24.86 2.2 35.9 51 -6.9 19.6
21:00 1013 29.91 842 24.86 2.1 35.7 53 -6.6 20.1
21:05 1013 29.91 842 24.86 2 35.5 51 -7 19.4
21:10 1013 29.91 842 24.86 2.3 36.1 46 -8.1 17.5
21:15 1013 29.91 842 24.86 2.7 36.9 46 -7.7 18.1
21:20 1013 29.91 842 24.86 2.7 36.9 47 -7.6 18.3
21:25 1013 29.91 842 24.86 2.6 36.7 48 -7.4 18.7
21:30 1013 29.91 842 24.86 2.5 36.4 49 -7.1 19.3
21:35 1013 29.91 842 24.86 2.5 36.6 47 -7.6 18.3
21:40 1013 29.91 842 24.86 2.7 36.9 47 -7.5 18.4
21:45 1013 29.91 842 24.86 2.6 36.7 49 -7 19.4
21:50 1013 29.91 842 24.86 2.4 36.4 48 -7.4 18.7
21:55 1013 29.91 843 24.89 2.4 36.4 49 -7.1 19.2
22:00 1014 29.94 843 24.89 2.4 36.2 50 -7 19.3
22:05 1014 29.94 843 24.89 2.3 36.1 50 -7.1 19.2
22:10 1014 29.94 843 24.89 2.2 36 50 -7.1 19.2
22:15 1014 29.94 843 24.89 2.3 36.1 48 -7.5 18.4
22:20 1014 29.94 843 24.89 2.4 36.4 49 -7.3 18.8
22:25 1014 29.94 843 24.89 2.3 36.1 51 -6.9 19.7
22:30 1014 29.94 843 24.89 2 35.7 51 -7 19.4
22:35 1014 29.94 843 24.89 2 35.7 50 -7.3 18.8
22:40 1014 29.94 843 24.89 2.1 35.8 51 -7.1 19.3
22:45 1014 29.94 843 24.89 2.1 35.7 51 -7 19.4
22:50 1014 29.94 843 24.89 2 35.7 49 -7.7 18.2
22:55 1014 29.94 843 24.89 2.3 36.2 46 -8 17.6
23:00 1014 29.94 844 24.92 2.6 36.6 46 -7.8 17.9
23:05 1014 29.94 844 24.92 2.6 36.7 47 -7.6 18.3
23:10 1014 29.94 844 24.92 2.5 36.6 48 -7.5 18.5
23:15 1014 29.94 844 24.92 2.4 36.3 49 -7.1 19.1
23:20 1014 29.94 844 24.92 2.2 36 50 -7.2 19
23:25 1014 29.94 843 24.89 2.1 35.9 50 -7.2 19.1
23:30 1014 29.94 843 24.89 2.1 35.8 51 -7.1 19.2
23:35 1014 29.94 843 24.89 2.1 35.8 49 -7.4 18.6
23:40 1014 29.94 843 24.89 2.2 36 46 -8.1 17.4
23:45 1014 29.94 843 24.89 2.6 36.6 47 -7.7 18.1
23:50 1014 29.94 843 24.89 2.5 36.5 48 -7.5 18.5
23:55 1014 29.94 843 24.89 2.4 36.2 49 -7.3 18.9
24:00 1014 29.94 843 24.89 2.3 36.1 49 -7.4 18.7